Time;durP1;ratioP1;P1;durP2;ratioP2;P2;SDS_P1;SDS_P2;PMS_P1;PMS_P2;Temp;Humidity;BMP_temperature;BMP_pressure;BME280_temperature;BME280_humidity;BME280_pressure;Samples;Min_cycle;Max_cycle;Signal;HPM_P1;HPM_P2
2022/03/23 00:01:24;;;;;;;37.88;28.83;;;9.40;99.90;;;;;;5094364;28;20075;-65
2022/03/23 00:03:50;;;;;;;40.38;28.60;;;9.40;99.90;;;;;;5112970;28;20058;-65
2022/03/23 00:06:17;;;;;;;32.15;23.40;;;9.40;99.90;;;;;;5094685;28;20051;-65
2022/03/23 00:08:43;;;;;;;30.38;22.75;;;9.40;99.90;;;;;;5113291;28;20484;-65
2022/03/23 00:11:09;;;;;;;32.97;23.02;;;9.30;99.90;;;;;;5094322;28;20050;-65
2022/03/23 00:13:35;;;;;;;36.33;26.42;;;9.30;99.90;;;;;;5094869;28;20127;-64
2022/03/23 00:16:02;;;;;;;41.38;29.63;;;9.30;99.90;;;;;;5113118;28;20102;-66
2022/03/23 00:18:28;;;;;;;53.78;36.30;;;9.20;99.90;;;;;;5094439;28;20083;-65
2022/03/23 00:20:54;;;;;;;52.35;35.63;;;9.20;99.90;;;;;;5094566;28;20088;-65
2022/03/23 00:23:19;;;;;;;49.97;34.95;;;9.20;99.90;;;;;;5112422;28;20039;-65
2022/03/23 00:25:45;;;;;;;46.97;34.25;;;9.10;99.90;;;;;;5094568;28;20050;-66
2022/03/23 00:28:11;;;;;;;49.30;33.17;;;9.10;99.90;;;;;;5112260;28;20126;-65
2022/03/23 00:30:36;;;;;;;46.72;33.17;;;9.00;99.90;;;;;;5112639;28;20075;-65
2022/03/23 00:33:02;;;;;;;48.15;33.20;;;9.00;99.90;;;;;;5112771;28;20047;-64
2022/03/23 00:35:29;;;;;;;46.92;33.47;;;8.90;99.90;;;;;;5111809;28;20074;-64
2022/03/23 00:37:58;;;;;;;52.75;35.22;;;8.90;99.90;;;;;;5111300;28;20048;-65
2022/03/23 00:40:25;;;;;;;46.78;34.42;;;8.90;99.90;;;;;;5112042;28;20117;-64
2022/03/23 00:42:50;;;;;;;47.33;34.08;;;8.80;99.90;;;;;;5112396;28;20059;-64
2022/03/23 00:45:17;;;;;;;42.63;30.77;;;8.80;99.90;;;;;;5094102;28;20393;-65
2022/03/23 00:47:44;;;;;;;46.63;32.63;;;8.80;99.90;;;;;;5112244;28;20047;-65
2022/03/23 00:50:09;;;;;;;43.97;31.70;;;8.80;99.90;;;;;;5093766;28;20086;-68
2022/03/23 00:52:37;;;;;;;44.92;32.40;;;8.70;99.90;;;;;;5094177;28;20094;-64
2022/03/23 00:55:04;;;;;;;41.47;27.25;;;8.70;99.90;;;;;;5112406;28;20058;-65
2022/03/23 00:57:30;;;;;;;45.00;30.67;;;8.60;99.90;;;;;;5111783;28;20563;-64
2022/03/23 00:59:56;;;;;;;44.13;32.25;;;8.60;99.90;;;;;;5112098;28;20059;-65
2022/03/23 01:02:21;;;;;;;46.88;32.00;;;8.50;99.90;;;;;;5092700;28;20050;-64
2022/03/23 01:04:47;;;;;;;49.30;33.20;;;8.50;99.90;;;;;;5094230;28;20069;-65
2022/03/23 01:07:13;;;;;;;44.35;30.13;;;8.50;99.90;;;;;;5093632;28;20050;-65
2022/03/23 01:09:39;;;;;;;39.75;27.58;;;8.50;99.90;;;;;;5111664;28;20055;-66
2022/03/23 01:12:05;;;;;;;42.38;28.40;;;8.40;99.90;;;;;;5093984;28;20089;-65
2022/03/23 01:14:30;;;;;;;43.67;29.58;;;8.40;99.90;;;;;;5093421;28;20177;-65
2022/03/23 01:16:56;;;;;;;39.60;28.80;;;8.40;99.90;;;;;;5111733;28;20130;-65
2022/03/23 01:19:25;;;;;;;40.83;28.77;;;8.30;99.90;;;;;;5111238;28;20094;-65
2022/03/23 01:21:52;;;;;;;41.00;28.17;;;8.30;99.90;;;;;;5111622;28;20481;-66
2022/03/23 01:24:21;;;;;;;34.58;26.25;;;8.20;99.90;;;;;;5111647;28;20074;-65
2022/03/23 01:26:47;;;;;;;28.95;22.23;;;8.10;99.90;;;;;;5111777;28;20047;-66
2022/03/23 01:29:13;;;;;;;27.15;20.35;;;8.10;99.90;;;;;;5111773;28;20141;-68
2022/03/23 01:31:39;;;;;;;34.13;23.48;;;8.00;99.90;;;;;;5111643;28;20039;-65
2022/03/23 01:34:05;;;;;;;35.78;25.13;;;8.00;99.90;;;;;;5093831;28;20051;-64
2022/03/23 01:36:31;;;;;;;37.58;25.80;;;8.00;99.90;;;;;;5093214;28;20036;-67
2022/03/23 01:38:58;;;;;;;39.28;27.02;;;8.00;99.90;;;;;;5093832;28;20409;-63
2022/03/23 01:41:25;;;;;;;26.90;19.38;;;7.90;99.90;;;;;;5092964;28;20423;-65
2022/03/23 01:43:51;;;;;;;29.67;19.67;;;7.90;99.90;;;;;;5093624;28;20040;-64
2022/03/23 01:46:18;;;;;;;37.83;22.85;;;7.90;99.90;;;;;;5111046;28;20044;-67
2022/03/23 01:48:46;;;;;;;29.55;21.45;;;7.80;99.90;;;;;;5111601;28;20412;-64
2022/03/23 01:51:13;;;;;;;27.65;20.25;;;7.80;99.90;;;;;;5094351;28;20086;-64
2022/03/23 01:53:39;;;;;;;28.20;19.48;;;7.80;99.90;;;;;;5097260;28;20547;-65
2022/03/23 01:56:05;;;;;;;38.90;27.25;;;7.70;99.90;;;;;;5115849;28;20040;-64
2022/03/23 01:58:31;;;;;;;39.72;28.10;;;7.70;99.90;;;;;;5115349;28;20055;-65
2022/03/23 02:00:57;;;;;;;32.05;23.05;;;7.70;99.90;;;;;;5115908;28;20039;-64
2022/03/23 02:03:22;;;;;;;39.10;27.38;;;7.80;99.90;;;;;;5079923;28;20056;-65
2022/03/23 02:05:48;;;;;;;40.35;29.95;;;7.70;99.90;;;;;;5115295;28;20377;-65
2022/03/23 02:08:15;;;;;;;40.90;29.02;;;7.70;99.90;;;;;;5080409;28;20058;-65
2022/03/23 02:10:41;;;;;;;38.90;27.65;;;7.70;99.90;;;;;;5096813;28;20500;-65
2022/03/23 02:13:09;;;;;;;40.25;29.05;;;7.70;99.90;;;;;;5097283;28;20043;-64
2022/03/23 02:15:35;;;;;;;44.47;29.65;;;7.70;99.90;;;;;;5115376;28;20070;-64
2022/03/23 02:18:01;;;;;;;43.17;28.30;;;7.70;99.90;;;;;;5097383;28;20047;-64
2022/03/23 02:20:42;;;;;;;42.90;28.88;;;7.70;99.90;;;;;;5051373;28;20053;-64
2022/03/23 02:23:08;;;;;;;43.55;28.30;;;7.60;99.90;;;;;;5035590;28;20384;-65
2022/03/23 02:25:34;;;;;;;37.58;27.65;;;7.60;99.90;;;;;;5051725;28;20076;-64
2022/03/23 02:28:01;;;;;;;40.33;27.95;;;7.60;99.90;;;;;;5052331;28;20080;-64
2022/03/23 02:30:27;;;;;;;40.55;28.67;;;7.60;99.90;;;;;;5051325;28;20049;-64
2022/03/23 02:32:52;;;;;;;38.58;26.85;;;7.50;99.90;;;;;;5051753;28;20055;-64
2022/03/23 02:35:18;;;;;;;38.10;26.50;;;7.50;99.90;;;;;;5051488;28;20057;-64
2022/03/23 02:37:44;;;;;;;44.40;29.08;;;7.50;99.90;;;;;;5051198;28;20045;-64
2022/03/23 02:40:11;;;;;;;38.17;27.52;;;7.50;99.90;;;;;;5051116;28;20060;-64
2022/03/23 02:42:37;;;;;;;38.80;28.42;;;7.50;99.90;;;;;;5034673;28;20127;-65
2022/03/23 02:45:06;;;;;;;41.25;27.67;;;7.40;99.90;;;;;;5051572;28;20108;-65
2022/03/23 02:47:32;;;;;;;41.20;29.00;;;7.40;99.90;;;;;;5034333;28;20048;-65
2022/03/23 02:49:58;;;;;;;40.45;27.10;;;7.40;99.90;;;;;;5050953;28;20044;-64
2022/03/23 02:52:24;;;;;;;39.47;27.38;;;7.40;99.90;;;;;;5100744;28;20052;-68
2022/03/23 03:03:38;;;;;;;47.35;30.25;;;7.30;99.90;;;;;;5097110;28;20177;-64
2022/03/23 03:06:04;;;;;;;40.65;28.15;;;7.20;99.90;;;;;;5096298;28;20479;-64
2022/03/23 03:08:45;;;;;;;40.03;27.52;;;7.20;99.90;;;;;;5113896;28;20040;-65
2022/03/23 03:11:13;;;;;;;42.30;27.63;;;7.20;99.90;;;;;;5081485;28;20489;-65
2022/03/23 03:13:41;;;;;;;39.75;26.88;;;7.20;99.90;;;;;;5113946;28;20049;-65
2022/03/23 03:16:06;;;;;;;40.47;28.23;;;7.10;99.90;;;;;;5114232;28;20362;-65
2022/03/23 03:18:34;;;;;;;41.95;28.77;;;7.10;99.90;;;;;;5113593;28;20051;-64
2022/03/23 03:21:04;;;;;;;37.03;27.50;;;7.10;99.90;;;;;;5113937;28;20036;-64
2022/03/23 03:23:30;;;;;;;42.30;28.65;;;7.00;99.90;;;;;;5113522;28;20039;-68
2022/03/23 03:25:56;;;;;;;42.05;29.92;;;7.00;99.90;;;;;;5113977;28;20063;-65
2022/03/23 03:28:22;;;;;;;40.55;27.38;;;7.00;99.90;;;;;;5095782;28;20047;-64
2022/03/23 03:30:49;;;;;;;41.65;28.45;;;7.00;99.90;;;;;;5078534;28;20058;-64
2022/03/23 03:33:14;;;;;;;40.35;26.98;;;7.00;99.90;;;;;;5095410;28;20047;-63
2022/03/23 03:35:40;;;;;;;39.42;27.38;;;6.90;99.90;;;;;;5113419;28;20130;-65
2022/03/23 03:38:07;;;;;;;43.88;26.50;;;6.90;99.90;;;;;;5095172;28;20058;-65
2022/03/23 03:40:33;;;;;;;36.30;26.45;;;6.90;99.90;;;;;;5095352;28;20067;-65
2022/03/23 03:42:58;;;;;;;38.10;26.73;;;6.90;99.90;;;;;;5078467;28;20058;-65
2022/03/23 03:45:24;;;;;;;35.58;24.42;;;6.90;99.90;;;;;;5095387;28;20057;-65
2022/03/23 03:47:50;;;;;;;39.20;25.45;;;6.80;99.90;;;;;;5094741;28;20128;-65
2022/03/23 03:50:15;;;;;;;37.22;25.42;;;6.80;99.90;;;;;;5095563;28;20488;-65
2022/03/23 03:52:41;;;;;;;37.78;25.88;;;6.80;99.90;;;;;;5113112;28;20135;-65
2022/03/23 03:55:07;;;;;;;37.17;27.10;;;6.80;99.90;;;;;;5113142;28;20090;-66
2022/03/23 03:57:33;;;;;;;41.03;26.70;;;6.80;99.90;;;;;;5113079;28;20053;-68
2022/03/23 03:59:59;;;;;;;43.38;27.40;;;6.80;99.90;;;;;;5095152;28;20051;-65
2022/03/23 04:02:25;;;;;;;39.17;27.10;;;6.70;99.90;;;;;;5094693;28;20480;-65
2022/03/23 04:04:50;;;;;;;38.92;26.95;;;6.70;99.90;;;;;;5112975;28;20124;-65
2022/03/23 04:07:16;;;;;;;37.60;26.27;;;6.70;99.90;;;;;;5061620;28;20100;-65
2022/03/23 04:09:41;;;;;;;38.42;27.05;;;6.60;99.90;;;;;;5094375;28;20054;-65
2022/03/23 04:12:09;;;;;;;37.50;26.63;;;6.60;99.90;;;;;;5094783;28;20509;-66
2022/03/23 04:14:34;;;;;;;41.85;28.02;;;6.60;99.90;;;;;;5112595;28;20051;-68
2022/03/23 04:17:00;;;;;;;44.38;25.70;;;6.60;99.90;;;;;;5112899;28;20127;-67
2022/03/23 04:19:26;;;;;;;39.85;27.60;;;6.60;99.90;;;;;;5094633;28;20551;-65
2022/03/23 04:21:52;;;;;;;36.63;25.73;;;6.50;99.90;;;;;;5094221;28;20055;-66
2022/03/23 04:24:18;;;;;;;36.03;26.05;;;6.60;99.90;;;;;;5094735;28;20054;-65
2022/03/23 04:26:46;;;;;;;39.55;25.33;;;6.50;99.90;;;;;;5094132;28;20092;-65
2022/03/23 04:29:12;;;;;;;37.72;26.63;;;6.50;99.90;;;;;;5112837;28;20043;-65
2022/03/23 04:31:38;;;;;;;39.22;25.92;;;6.50;99.90;;;;;;5112098;28;20580;-68
2022/03/23 04:34:04;;;;;;;39.20;26.08;;;6.50;99.90;;;;;;5112455;28;20052;-65
2022/03/23 04:36:30;;;;;;;37.42;26.63;;;6.40;99.90;;;;;;5112410;28;20465;-65
2022/03/23 04:38:55;;;;;;;37.88;25.55;;;6.40;99.90;;;;;;5060715;28;20043;-65
2022/03/23 04:41:21;;;;;;;38.47;26.38;;;6.30;99.90;;;;;;5094253;28;20122;-65
2022/03/23 04:43:47;;;;;;;38.75;27.13;;;6.30;99.90;;;;;;5093965;28;20119;-65
2022/03/23 04:46:14;;;;;;;42.15;27.52;;;6.30;99.90;;;;;;5094274;28;20048;-66
2022/03/23 04:48:40;;;;;;;41.03;26.88;;;6.30;99.90;;;;;;5112304;28;20059;-67
2022/03/23 04:51:06;;;;;;;38.75;25.92;;;6.30;99.90;;;;;;5094139;28;20058;-64
2022/03/23 04:53:31;;;;;;;38.75;27.17;;;6.30;99.90;;;;;;5077557;28;20050;-64
2022/03/23 04:55:57;;;;;;;42.20;27.92;;;6.30;99.90;;;;;;5093882;28;20044;-66
2022/03/23 04:58:25;;;;;;;39.65;28.30;;;6.00;99.90;;;;;;5112204;28;20079;-65
2022/03/23 05:00:50;;;;;;;40.20;28.67;;;6.20;99.90;;;;;;5111725;28;20036;-66
2022/03/23 05:03:16;;;;;;;41.92;29.05;;;6.20;99.90;;;;;;5112167;28;20058;-65
2022/03/23 05:05:43;;;;;;;40.30;28.27;;;6.20;99.90;;;;;;5111892;28;20509;-68
2022/03/23 05:08:09;;;;;;;42.08;27.70;;;6.10;99.90;;;;;;5112094;28;20054;-65
2022/03/23 05:10:35;;;;;;;38.53;26.70;;;6.10;99.90;;;;;;5112061;28;20035;-63
2022/03/23 05:13:01;;;;;;;41.40;28.40;;;6.10;99.90;;;;;;5093469;28;20139;-66
2022/03/23 05:15:26;;;;;;;42.80;29.35;;;6.10;99.90;;;;;;5093702;28;20425;-66
2022/03/23 05:17:52;;;;;;;46.53;30.20;;;6.10;99.90;;;;;;5093547;28;20086;-66
2022/03/23 05:20:18;;;;;;;45.65;30.73;;;6.10;99.90;;;;;;5112002;28;20043;-66
2022/03/23 05:22:44;;;;;;;45.80;31.65;;;6.00;99.90;;;;;;5111794;28;20047;-69
2022/03/23 05:25:10;;;;;;;47.88;31.35;;;6.10;99.90;;;;;;5111775;28;20130;-65
2022/03/23 05:27:39;;;;;;;46.97;31.45;;;6.00;99.90;;;;;;5093293;28;20131;-66
2022/03/23 05:30:08;;;;;;;41.97;30.15;;;6.00;99.90;;;;;;5111300;28;20504;-65
2022/03/23 05:32:35;;;;;;;42.22;29.95;;;6.10;99.90;;;;;;5093820;28;20062;-65
2022/03/23 05:35:01;;;;;;;43.72;30.27;;;6.00;99.90;;;;;;5093311;28;20122;-66
2022/03/23 05:37:27;;;;;;;44.00;29.42;;;6.00;99.90;;;;;;5111702;28;20086;-65
2022/03/23 05:39:52;;;;;;;47.00;31.13;;;6.00;99.90;;;;;;5111150;28;20400;-64
2022/03/23 05:42:19;;;;;;;45.92;31.25;;;6.00;99.90;;;;;;5111538;28;20222;-65
2022/03/23 05:44:45;;;;;;;43.47;30.75;;;6.00;99.90;;;;;;5093524;28;20480;-68
2022/03/23 05:47:11;;;;;;;45.75;31.05;;;6.00;99.90;;;;;;5111530;28;20048;-66
2022/03/23 05:49:37;;;;;;;46.50;32.35;;;6.10;99.90;;;;;;5076619;28;20485;-65
2022/03/23 05:52:03;;;;;;;46.05;31.40;;;6.10;99.90;;;;;;5111048;28;20066;-66
2022/03/23 05:54:29;;;;;;;48.40;33.08;;;6.10;99.90;;;;;;5111540;28;20084;-66
2022/03/23 05:56:56;;;;;;;48.92;33.10;;;6.10;99.90;;;;;;5093269;28;20094;-65
2022/03/23 05:59:22;;;;;;;45.13;30.92;;;6.20;99.90;;;;;;5111483;28;20097;-66
2022/03/23 06:01:47;;;;;;;49.67;31.17;;;6.20;99.90;;;;;;5093009;28;20040;-69
2022/03/23 06:04:13;;;;;;;48.55;32.47;;;6.30;99.90;;;;;;5110799;28;20051;-66
2022/03/23 06:06:39;;;;;;;46.60;32.00;;;6.40;99.90;;;;;;5111343;28;20440;-66
2022/03/23 06:09:06;;;;;;;48.75;33.03;;;6.40;99.90;;;;;;5092891;28;20043;-66
2022/03/23 06:11:32;;;;;;;50.33;31.70;;;6.40;99.90;;;;;;5076479;28;20043;-65
2022/03/23 06:13:57;;;;;;;46.00;33.13;;;6.50;99.90;;;;;;5110924;28;20560;-65
2022/03/23 06:16:23;;;;;;;47.55;33.45;;;6.40;99.90;;;;;;5111438;28;20051;-65
2022/03/23 06:18:49;;;;;;;53.72;35.05;;;6.60;99.90;;;;;;5111096;28;20114;-68
2022/03/23 06:21:15;;;;;;;49.70;33.55;;;6.60;99.90;;;;;;5093181;28;20040;-64
2022/03/23 06:23:41;;;;;;;51.90;36.17;;;6.70;99.90;;;;;;5111475;28;20052;-65
2022/03/23 06:26:07;;;;;;;54.30;36.53;;;6.70;99.90;;;;;;5092749;28;20556;-64
2022/03/23 06:28:34;;;;;;;54.60;35.03;;;6.70;99.90;;;;;;5111111;28;20048;-65
2022/03/23 06:30:59;;;;;;;53.20;35.42;;;6.80;99.90;;;;;;5092021;28;20051;-64
2022/03/23 06:33:25;;;;;;;53.08;35.17;;;6.90;99.90;;;;;;5092869;28;20040;-65
2022/03/23 06:35:51;;;;;;;54.33;35.70;;;7.00;99.90;;;;;;5093106;28;20040;-69
2022/03/23 06:38:17;;;;;;;52.42;35.72;;;7.10;99.90;;;;;;5094968;28;20047;-65
2022/03/23 06:40:43;;;;;;;49.53;34.65;;;7.20;99.90;;;;;;5114599;28;20036;-65
2022/03/23 06:43:09;;;;;;;52.67;34.92;;;7.30;99.90;;;;;;5114385;28;20392;-66
2022/03/23 06:45:35;;;;;;;53.63;36.60;;;7.40;99.90;;;;;;5114538;28;20039;-66
2022/03/23 06:48:02;;;;;;;54.90;37.28;;;7.40;99.90;;;;;;5114218;28;20059;-66
2022/03/23 06:50:27;;;;;;;56.78;37.20;;;7.60;99.90;;;;;;5096161;28;20055;-67
2022/03/23 06:52:53;;;;;;;54.17;36.13;;;7.60;99.90;;;;;;5114444;28;20066;-69
2022/03/23 06:55:19;;;;;;;54.78;36.47;;;7.70;99.90;;;;;;5079404;28;20052;-65
2022/03/23 06:57:45;;;;;;;53.75;36.55;;;7.80;99.90;;;;;;5096274;28;20157;-64
2022/03/23 07:00:14;;;;;;;56.53;39.20;;;8.00;99.90;;;;;;5095421;28;20344;-65
2022/03/23 07:02:41;;;;;;;55.63;37.38;;;8.40;99.90;;;;;;5078793;28;20059;-66
2022/03/23 07:05:08;;;;;;;49.97;34.17;;;9.00;99.90;;;;;;5095451;28;20121;-66
2022/03/23 07:07:35;;;;;;;52.17;37.13;;;9.60;99.90;;;;;;5113835;28;20076;-65
2022/03/23 07:10:02;;;;;;;49.90;35.92;;;10.10;99.90;;;;;;5113319;28;20089;-65
2022/03/23 07:12:28;;;;;;;47.67;34.88;;;10.40;99.90;;;;;;5078577;28;20130;-64
2022/03/23 07:14:53;;;;;;;50.00;35.25;;;10.80;99.90;;;;;;5113657;28;20126;-65
2022/03/23 07:17:19;;;;;;;52.15;35.58;;;11.30;99.90;;;;;;5113148;28;20066;-65
2022/03/23 07:19:45;;;;;;;49.08;34.42;;;11.90;99.90;;;;;;5095389;28;20126;-66
2022/03/23 07:22:11;;;;;;;49.50;33.30;;;12.40;99.90;;;;;;5112842;28;20035;-65
2022/03/23 07:24:37;;;;;;;46.33;33.80;;;12.90;99.90;;;;;;5113398;28;20570;-64
2022/03/23 07:27:03;;;;;;;43.97;31.92;;;13.20;99.90;;;;;;5094559;28;20053;-65
2022/03/23 07:29:29;;;;;;;45.05;34.42;;;13.50;99.90;;;;;;5095193;28;20488;-64
2022/03/23 07:31:54;;;;;;;44.90;32.88;;;14.10;99.90;;;;;;5112931;28;20055;-64
2022/03/23 07:34:20;;;;;;;45.05;32.40;;;14.80;99.90;;;;;;5112820;28;20598;-64
2022/03/23 07:36:47;;;;;;;44.47;32.40;;;15.10;99.90;;;;;;5112912;28;20130;-64
2022/03/23 07:39:21;;;;;;;41.15;30.60;;;15.40;99.90;;;;;;5112741;28;20044;-65
2022/03/23 07:41:50;;;;;;;40.30;30.90;;;15.90;99.90;;;;;;5113189;28;20150;-64
2022/03/23 07:44:17;;;;;;;41.95;32.08;;;16.40;99.90;;;;;;5112961;28;20165;-64
2022/03/23 07:46:44;;;;;;;40.17;29.65;;;17.00;99.90;;;;;;5113150;28;20047;-66
2022/03/23 07:49:09;;;;;;;39.42;30.88;;;17.40;99.80;;;;;;5094151;28;20105;-64
2022/03/23 07:51:35;;;;;;;37.45;29.70;;;17.90;99.90;;;;;;5094932;28;20043;-63
2022/03/23 07:54:01;;;;;;;38.13;29.58;;;18.20;99.90;;;;;;5112553;28;20043;-70
2022/03/23 07:56:26;;;;;;;37.78;28.75;;;18.70;99.00;;;;;;5094246;28;20043;-64
2022/03/23 07:58:52;;;;;;;35.45;28.48;;;19.20;98.60;;;;;;5112679;28;20140;-64
2022/03/23 08:01:18;;;;;;;36.33;29.05;;;19.60;95.00;;;;;;5112414;28;20083;-64
2022/03/23 08:03:44;;;;;;;36.90;29.20;;;20.00;93.20;;;;;;5090649;28;20063;-64
2022/03/23 08:06:10;;;;;;;34.40;28.80;;;20.40;93.40;;;;;;5091838;28;20466;-66
2022/03/23 08:08:36;;;;;;;32.33;27.63;;;20.80;91.80;;;;;;5091079;28;20064;-64
2022/03/23 08:11:02;;;;;;;30.13;25.30;;;20.90;87.30;;;;;;5092470;28;20070;-65
2022/03/23 08:13:27;;;;;;;30.27;24.67;;;21.10;79.90;;;;;;5091548;28;20048;-64
2022/03/23 08:15:53;;;;;;;32.13;24.88;;;21.50;87.30;;;;;;5074216;28;20048;-65
2022/03/23 08:18:21;;;;;;;27.95;23.67;;;21.60;76.50;;;;;;5073810;28;20131;-64
2022/03/23 08:20:48;;;;;;;30.48;23.65;;;21.70;74.40;;;;;;5091101;28;20044;-64
2022/03/23 08:23:17;;;;;;;29.40;24.38;;;21.90;75.00;;;;;;5090515;28;20052;-65
2022/03/23 08:25:43;;;;;;;31.50;24.40;;;21.90;71.60;;;;;;5092154;28;20046;-64
2022/03/23 08:28:17;;;;;;;29.55;23.98;;;21.90;71.00;;;;;;5090506;28;20047;-66
2022/03/23 08:30:43;;;;;;;;;;;22.20;70.30;;;;;;5092582;28;20143;-65
2022/03/23 08:33:09;;;;;;;28.30;23.08;;;22.10;74.10;;;;;;5091500;28;19927;-64
2022/03/23 08:35:36;;;;;;;29.25;23.17;;;22.40;74.30;;;;;;5092039;28;20056;-64
2022/03/23 08:38:02;;;;;;;30.48;23.48;;;22.20;73.80;;;;;;5091685;28;20489;-65
2022/03/23 08:40:29;;;;;;;25.67;22.45;;;22.30;70.90;;;;;;5091515;28;20044;-64
2022/03/23 08:42:55;;;;;;;28.38;22.52;;;22.40;69.90;;;;;;5091152;28;20557;-65
2022/03/23 08:45:21;;;;;;;26.55;22.60;;;22.70;69.40;;;;;;5091461;28;20048;-64
2022/03/23 08:47:49;;;;;;;27.15;22.67;;;23.00;69.30;;;;;;5091486;28;20051;-64
2022/03/23 08:50:15;;;;;;;28.13;22.98;;;23.30;66.80;;;;;;5090936;28;20051;-66
2022/03/23 08:52:41;;;;;;;28.23;22.85;;;23.50;68.90;;;;;;5090735;28;20051;-64
2022/03/23 08:55:15;;;;;;;24.70;21.77;;;23.70;68.00;;;;;;5090162;28;20063;-62
2022/03/23 08:57:43;;;;;;;24.15;21.55;;;23.90;65.20;;;;;;5091372;28;20055;-63
2022/03/23 09:00:11;;;;;;;26.10;21.13;;;24.10;63.90;;;;;;5090660;28;20048;-70
2022/03/23 09:02:37;;;;;;;27.33;20.52;;;24.40;64.10;;;;;;5090537;28;20047;-63
2022/03/23 09:05:03;;;;;;;27.15;21.77;;;24.40;63.60;;;;;;5089613;28;20052;-64
2022/03/23 09:07:32;;;;;;;26.27;20.13;;;24.60;61.10;;;;;;5090024;28;20080;-64
2022/03/23 09:09:58;;;;;;;26.33;21.10;;;24.20;61.50;;;;;;5090545;28;20044;-65
2022/03/23 09:12:24;;;;;;;26.23;21.38;;;24.40;58.80;;;;;;5090419;28;20051;-64
2022/03/23 09:14:49;;;;;;;25.92;19.70;;;24.40;58.40;;;;;;5090126;28;20056;-64
2022/03/23 09:17:15;;;;;;;24.48;21.20;;;24.50;60.00;;;;;;5090420;28;20126;-65
2022/03/23 09:19:41;;;;;;;23.23;18.90;;;24.40;59.10;;;;;;5090888;28;20566;-64
2022/03/23 09:22:07;;;;;;;22.25;19.63;;;24.60;59.00;;;;;;5089705;28;20040;-66
2022/03/23 09:24:33;;;;;;;22.83;19.50;;;24.30;57.30;;;;;;5090635;28;20036;-64
2022/03/23 09:26:58;;;;;;;21.77;19.48;;;23.60;57.40;;;;;;5073180;28;20162;-65
2022/03/23 09:29:24;;;;;;;21.88;18.35;;;22.70;56.50;;;;;;5090724;28;20044;-63
2022/03/23 09:31:50;;;;;;;23.15;19.77;;;22.00;57.40;;;;;;5091097;28;20652;-62
2022/03/23 09:34:16;;;;;;;22.15;18.98;;;21.20;57.40;;;;;;5090787;28;20118;-65
2022/03/23 09:39:26;;;;;;;24.85;19.08;;;20.30;57.60;;;;;;5090665;28;20063;-64
2022/03/23 09:41:53;;;;;;;23.08;20.17;;;20.20;58.10;;;;;;5089693;28;20044;-64
2022/03/23 09:44:20;;;;;;;21.98;18.75;;;20.20;58.20;;;;;;5090599;28;20047;-65
2022/03/23 09:46:46;;;;;;;24.27;17.75;;;20.30;57.90;;;;;;5091209;28;20059;-64
2022/03/23 09:49:12;;;;;;;20.75;17.27;;;20.20;57.70;;;;;;5090922;28;20077;-63
2022/03/23 09:51:39;;;;;;;20.70;17.30;;;20.10;57.50;;;;;;5090436;28;20463;-63
2022/03/23 09:54:05;;;;;;;20.20;15.00;;;20.00;55.80;;;;;;5091081;28;20111;-63
2022/03/23 09:56:31;;;;;;;18.00;15.73;;;19.80;56.10;;;;;;5089985;28;20051;-64
2022/03/23 09:58:57;;;;;;;20.05;17.20;;;19.50;55.50;;;;;;5090683;28;20051;-65
2022/03/23 10:01:29;;;;;;;20.50;16.10;;;19.30;56.30;;;;;;5090546;28;20439;-64
2022/03/23 10:04:42;;;;;;;22.60;15.60;;;19.20;56.90;;;;;;5097803;28;20066;-64
2022/03/23 10:07:25;;;;;;;23.30;16.77;;;19.20;57.40;;;;;;5111136;28;20062;-64
2022/03/23 10:10:19;;;;;;;19.85;15.50;;;19.10;57.40;;;;;;5092984;28;20059;-64
2022/03/23 10:13:13;;;;;;;19.77;15.95;;;19.10;57.00;;;;;;5113188;28;20044;-64
2022/03/23 10:16:16;;;;;;;24.80;18.20;;;19.20;57.60;;;;;;5114973;28;20464;-64
2022/03/23 10:19:11;;;;;;;23.08;18.40;;;19.10;58.60;;;;;;5114679;28;20285;-64
2022/03/23 10:21:42;;;;;;;23.80;17.83;;;19.00;59.60;;;;;;5092668;28;20492;-63
2022/03/23 10:24:07;;;;;;;19.58;14.48;;;19.10;58.00;;;;;;5115061;28;20385;-65
2022/03/23 10:26:37;;;;;;;19.67;15.00;;;19.20;56.90;;;;;;5114627;28;20043;-65
2022/03/23 10:29:04;;;;;;;20.38;15.80;;;19.20;55.40;;;;;;5114839;28;20047;-64
2022/03/23 10:31:31;;;;;;;18.80;14.15;;;19.20;55.40;;;;;;5079246;28;20453;-64
2022/03/23 10:34:08;;;;;;;16.85;14.75;;;19.20;55.40;;;;;;5114848;28;20149;-64
2022/03/23 10:36:51;;;;;;;18.30;14.55;;;19.00;54.50;;;;;;5096323;28;20050;-65
2022/03/23 10:39:18;;;;;;;18.30;13.50;;;18.90;53.40;;;;;;5096784;28;20393;-65
2022/03/23 10:41:59;;;;;;;17.73;13.50;;;18.70;53.80;;;;;;5114243;28;20036;-64
2022/03/23 10:44:26;;;;;;;18.23;14.52;;;18.70;54.30;;;;;;5114531;28;20432;-65
2022/03/23 10:46:56;;;;;;;17.70;13.38;;;18.70;54.30;;;;;;5114221;28;20081;-64
2022/03/23 10:49:36;;;;;;;15.65;12.32;;;18.80;54.20;;;;;;5095843;28;20079;-69
2022/03/23 10:52:17;;;;;;;14.98;13.38;;;18.70;53.00;;;;;;5114551;28;20046;-64
2022/03/23 10:54:54;;;;;;;14.93;12.75;;;18.60;53.30;;;;;;5113780;28;20514;-64
2022/03/23 10:57:20;;;;;;;17.17;12.40;;;18.60;53.70;;;;;;5079136;28;20485;-64
2022/03/23 10:59:46;;;;;;;16.52;12.80;;;18.60;54.00;;;;;;5095400;28;20581;-63
2022/03/23 11:02:12;;;;;;;15.35;10.65;;;18.70;53.70;;;;;;5114058;28;20039;-63
2022/03/23 11:04:46;;;;;;;17.90;12.27;;;18.80;53.10;;;;;;5113674;28;20145;-65
2022/03/23 11:07:29;;;;;;;15.60;10.43;;;18.70;52.60;;;;;;5114069;28;20135;-64
2022/03/23 11:18:11;;;;;;;17.70;10.02;;;18.90;54.00;;;;;;5114045;28;20261;-63
2022/03/23 11:20:47;;;;;;;16.55;10.85;;;18.90;52.20;;;;;;5095217;28;20051;-63
2022/03/23 11:23:37;;;;;;;20.38;12.38;;;19.00;52.90;;;;;;5095242;28;20044;-65
2022/03/23 11:26:09;;;;;;;18.30;11.98;;;19.00;53.20;;;;;;5100431;28;20404;-64
2022/03/23 11:28:45;;;;;;;17.77;12.73;;;19.10;54.30;;;;;;5113474;28;20049;-64
2022/03/23 11:31:13;;;;;;;21.23;12.25;;;19.00;54.00;;;;;;5095636;28;20096;-64
2022/03/23 11:33:39;;;;;;;20.15;11.52;;;18.90;54.30;;;;;;5078296;28;20044;-64
2022/03/23 11:36:14;;;;;;;19.98;11.05;;;18.90;54.90;;;;;;5095150;28;20039;-65
2022/03/23 11:38:40;;;;;;;15.43;11.50;;;18.90;54.80;;;;;;5113306;28;20047;-64
2022/03/23 11:41:07;;;;;;;18.15;11.48;;;18.80;54.40;;;;;;5113297;28;20123;-64
2022/03/23 11:43:39;;;;;;;15.73;10.90;;;18.80;54.20;;;;;;5113081;28;20098;-65
2022/03/23 11:46:05;;;;;;;23.73;10.65;;;18.70;54.30;;;;;;5113226;28;20035;-64
2022/03/23 11:48:49;;;;;;;15.63;9.80;;;18.70;54.30;;;;;;5112826;28;20436;-64
2022/03/23 11:51:56;;;;;;;21.95;11.40;;;18.70;55.00;;;;;;5113586;28;20039;-64
2022/03/23 11:58:00;;;;;;;22.17;10.70;;;18.70;54.20;;;;;;5112975;28;20073;-65
2022/03/23 12:00:28;;;;;;;20.67;11.48;;;18.60;54.40;;;;;;5113470;28;20044;-65
2022/03/23 12:02:54;;;;;;;20.20;9.65;;;18.70;55.90;;;;;;5112595;28;20093;-65
2022/03/23 12:05:29;;;;;;;23.23;10.15;;;18.70;55.50;;;;;;5112383;28;20381;-65
2022/03/23 12:07:55;;;;;;;22.92;9.25;;;18.70;55.00;;;;;;5113223;28;20055;-64
2022/03/23 12:10:23;;;;;;;21.13;10.50;;;18.80;55.00;;;;;;5112881;28;20055;-64
2022/03/23 12:12:49;;;;;;;22.52;10.07;;;18.90;54.80;;;;;;5094356;28;20054;-64
2022/03/23 12:15:24;;;;;;;20.95;12.25;;;19.00;55.40;;;;;;5077778;28;20047;-64
2022/03/23 12:17:55;;;;;;;15.80;11.15;;;19.10;55.10;;;;;;5094575;28;20051;-64
2022/03/23 12:20:33;;;;;;;22.00;11.10;;;19.20;55.70;;;;;;5112886;28;20055;-63
2022/03/23 12:23:14;;;;;;;20.00;8.93;;;19.20;56.00;;;;;;5112773;28;20087;-63
2022/03/23 12:26:12;;;;;;;24.20;9.60;;;19.10;55.40;;;;;;5112148;28;20047;-63
2022/03/23 12:28:50;;;;;;;17.40;10.82;;;19.20;55.50;;;;;;5112287;28;20054;-64
2022/03/23 12:31:16;;;;;;;19.95;10.07;;;19.20;55.90;;;;;;5112704;28;20144;-64
2022/03/23 12:33:59;;;;;;;17.58;10.50;;;19.20;55.80;;;;;;5112092;28;20040;-63
2022/03/23 12:36:56;;;;;;;19.30;8.63;;;19.10;55.00;;;;;;5112145;28;20176;-64
2022/03/23 12:39:37;;;;;;;17.45;7.80;;;19.00;55.50;;;;;;5111847;28;20377;-64
2022/03/23 12:42:12;;;;;;;20.05;8.27;;;18.90;55.40;;;;;;5112291;28;20090;-65
2022/03/23 12:44:40;;;;;;;22.00;8.13;;;18.90;55.30;;;;;;5111894;28;20146;-64
2022/03/23 12:47:25;;;;;;;19.98;8.10;;;18.90;55.70;;;;;;5111833;28;20527;-64
2022/03/23 12:58:18;;;;;;;18.45;9.23;;;18.90;56.30;;;;;;5082330;28;20043;-65
2022/03/23 13:00:47;;;;;;;20.08;9.57;;;18.80;56.50;;;;;;5111595;28;20039;-65
2022/03/23 13:03:33;;;;;;;17.92;8.27;;;18.80;57.00;;;;;;5111697;28;20497;-64
2022/03/23 13:06:02;;;;;;;20.30;8.07;;;18.90;56.30;;;;;;5092220;28;20642;-65
2022/03/23 13:08:32;;;;;;;16.42;8.30;;;18.90;56.30;;;;;;5111670;28;20457;-65
2022/03/23 13:10:58;;;;;;;20.73;9.32;;;19.00;56.40;;;;;;5076210;28;20621;-63